createdAt,value
2019-05-26T00:00:43.957Z,25.70
2019-05-26T00:03:47.547Z,25.71
2019-05-26T00:06:51.068Z,25.70
2019-05-26T00:09:54.506Z,25.70
2019-05-26T00:12:58.181Z,25.70
2019-05-26T00:16:01.679Z,25.68
2019-05-26T00:19:05.183Z,25.68
2019-05-26T00:22:08.590Z,25.68
2019-05-26T00:25:12.013Z,25.69
2019-05-26T00:28:15.469Z,25.67
2019-05-26T00:31:18.873Z,25.67
2019-05-26T00:34:23.383Z,25.67
2019-05-26T00:37:27.909Z,25.66
2019-05-26T00:40:32.432Z,25.65
2019-05-26T00:43:35.949Z,25.66
2019-05-26T00:46:39.438Z,25.65
2019-05-26T00:49:42.877Z,25.63
2019-05-26T00:52:46.339Z,25.65
2019-05-26T00:55:49.941Z,25.64
2019-05-26T00:58:53.456Z,25.64
2019-05-26T01:01:57.058Z,25.64
2019-05-26T01:05:00.664Z,25.62
2019-05-26T01:08:06.952Z,25.61
2019-05-26T01:11:10.523Z,25.61
2019-05-26T01:14:14.018Z,25.61
2019-05-26T01:17:17.523Z,25.61
2019-05-26T01:20:22.219Z,25.62
2019-05-26T01:23:25.656Z,25.61
2019-05-26T01:26:29.267Z,25.60
2019-05-26T01:29:32.735Z,25.61
2019-05-26T01:32:36.157Z,25.61
2019-05-26T01:35:41.002Z,25.58
2019-05-26T01:38:44.578Z,25.58
2019-05-26T01:41:48.267Z,25.57
2019-05-26T01:44:51.678Z,25.58
2019-05-26T01:47:55.163Z,25.60
2019-05-26T01:50:58.695Z,25.58
2019-05-26T01:54:02.195Z,25.58
2019-05-26T01:57:05.716Z,25.58
2019-05-26T02:00:10.175Z,25.58
2019-05-26T02:03:13.696Z,25.57
2019-05-26T02:06:17.117Z,25.57
2019-05-26T02:09:20.828Z,25.57
2019-05-26T02:12:24.248Z,25.57
2019-05-26T02:15:29.199Z,25.55
2019-05-26T02:18:32.697Z,25.56
2019-05-26T02:21:36.180Z,25.56
2019-05-26T02:24:41.720Z,25.55
2019-05-26T02:27:45.210Z,25.56
2019-05-26T02:30:48.718Z,25.55
2019-05-26T02:33:53.241Z,25.55
2019-05-26T02:36:56.734Z,25.53
2019-05-26T02:40:00.292Z,25.54
2019-05-26T02:43:03.743Z,25.54
2019-05-26T02:46:07.248Z,25.52
2019-05-26T02:49:10.744Z,25.52
2019-05-26T02:52:14.269Z,25.53
2019-05-26T02:55:19.817Z,25.52
2019-05-26T02:58:24.321Z,25.50
2019-05-26T03:01:27.724Z,25.49
2019-05-26T03:04:31.323Z,25.50
2019-05-26T03:07:34.862Z,25.50
2019-05-26T03:10:38.322Z,25.51
2019-05-26T03:13:42.882Z,25.48
2019-05-26T03:16:47.373Z,25.49
2019-05-26T03:19:50.874Z,25.48
2019-05-26T03:22:54.386Z,25.49
2019-05-26T03:25:57.872Z,25.49
2019-05-26T03:29:01.423Z,25.48
2019-05-26T03:32:04.882Z,25.47
2019-05-26T03:35:08.679Z,25.47
2019-05-26T03:38:12.062Z,25.46
2019-05-26T03:41:16.616Z,25.47
2019-05-26T03:44:20.145Z,25.45
2019-05-26T03:47:25.672Z,25.47
2019-05-26T03:50:29.211Z,25.46
2019-05-26T03:53:32.788Z,25.46
2019-05-26T03:56:37.414Z,25.47
2019-05-26T03:59:40.907Z,25.46
2019-05-26T04:02:45.420Z,25.45
2019-05-26T04:05:48.910Z,25.47
2019-05-26T04:08:53.464Z,25.47
2019-05-26T04:11:56.972Z,25.47
2019-05-26T04:15:00.439Z,25.47
2019-05-26T04:18:03.953Z,25.48
2019-05-26T04:21:08.469Z,25.45
2019-05-26T04:24:11.986Z,25.47
2019-05-26T04:27:15.399Z,25.45
2019-05-26T04:30:19.998Z,25.46
2019-05-26T04:33:24.518Z,25.45
2019-05-26T04:36:28.034Z,25.45
2019-05-26T04:39:31.444Z,25.43
2019-05-26T04:42:34.929Z,25.44
2019-05-26T04:45:38.551Z,25.43
2019-05-26T04:48:42.032Z,25.45
2019-05-26T04:51:46.579Z,25.43
2019-05-26T04:54:50.091Z,25.45
2019-05-26T04:57:53.547Z,25.46
2019-05-26T05:00:57.192Z,25.44
2019-05-26T05:04:00.686Z,25.46
2019-05-26T05:07:04.107Z,25.45
2019-05-26T05:10:07.579Z,25.45
2019-05-26T05:13:12.235Z,25.44
2019-05-26T05:16:15.688Z,25.44
2019-05-26T05:19:19.285Z,25.45
2019-05-26T05:22:22.792Z,25.45
2019-05-26T05:25:26.192Z,25.45
2019-05-26T05:28:29.805Z,25.45
2019-05-26T05:31:33.308Z,25.45
2019-05-26T05:34:36.721Z,25.44
2019-05-26T05:37:40.207Z,25.45
2019-05-26T05:40:58.347Z,25.45
2019-05-26T05:43:48.923Z,25.44
2019-05-26T05:46:52.333Z,25.44
2019-05-26T05:49:55.936Z,25.44
2019-05-26T05:52:59.466Z,25.46
2019-05-26T05:56:03.039Z,25.46
2019-05-26T05:59:06.447Z,25.45
2019-05-26T06:02:09.945Z,25.45
2019-05-26T06:05:13.463Z,25.47
2019-05-26T06:08:16.948Z,25.46
2019-05-26T06:11:21.478Z,25.46
2019-05-26T06:14:25.993Z,25.46
2019-05-26T06:17:29.611Z,25.46
2019-05-26T06:20:33.101Z,25.45
2019-05-26T06:23:37.247Z,25.45
2019-05-26T06:26:43.086Z,25.47
2019-05-26T06:29:58.453Z,25.47
2019-05-26T06:32:51.715Z,25.46
2019-05-26T06:35:55.220Z,25.47
2019-05-26T06:38:58.662Z,25.45
2019-05-26T06:42:02.318Z,25.46
2019-05-26T06:45:06.043Z,25.46
2019-05-26T06:48:09.630Z,25.45
2019-05-26T06:51:13.146Z,25.47
2019-05-26T06:54:16.558Z,25.52
2019-05-26T06:57:21.158Z,25.54
2019-05-26T07:00:24.562Z,25.55
2019-05-26T07:03:28.205Z,25.56
2019-05-26T07:06:32.705Z,25.56
2019-05-26T07:09:37.217Z,25.58
2019-05-26T07:12:41.734Z,25.58
2019-05-26T07:15:45.239Z,25.58
2019-05-26T07:18:48.786Z,25.60
2019-05-26T07:21:52.249Z,25.61
2019-05-26T07:24:55.658Z,25.61
2019-05-26T07:27:59.320Z,25.63
2019-05-26T07:31:03.767Z,25.65
2019-05-26T07:34:07.352Z,25.66
2019-05-26T07:37:11.140Z,25.66
2019-05-26T07:40:15.224Z,25.63
2019-05-26T07:43:18.761Z,25.64
2019-05-26T07:46:22.348Z,25.62
2019-05-26T07:49:25.806Z,25.62
2019-05-26T07:52:29.315Z,25.63
2019-05-26T07:55:32.783Z,25.63
2019-05-26T07:58:36.298Z,25.62
2019-05-26T08:01:40.737Z,25.63
2019-05-26T08:04:44.463Z,25.63
2019-05-26T08:07:48.053Z,25.63
2019-05-26T08:10:51.521Z,25.62
2019-05-26T08:13:55.085Z,25.64
2019-05-26T08:16:58.588Z,25.64
2019-05-26T08:20:02.038Z,25.64
2019-05-26T08:23:06.531Z,25.63
2019-05-26T08:26:09.917Z,25.66
2019-05-26T08:29:13.364Z,25.66
2019-05-26T08:32:16.856Z,25.65
2019-05-26T08:35:20.385Z,25.66
2019-05-26T08:38:23.870Z,25.66
2019-05-26T08:41:27.369Z,25.66
2019-05-26T08:44:30.865Z,25.66
2019-05-26T08:47:35.506Z,25.67
2019-05-26T08:50:39.149Z,25.66
2019-05-26T08:53:43.625Z,25.70
2019-05-26T08:56:47.123Z,25.78
2019-05-26T08:59:50.626Z,25.81
2019-05-26T09:02:54.133Z,25.82
2019-05-26T09:05:57.634Z,25.83
2019-05-26T09:09:01.046Z,25.85
2019-05-26T09:12:07.728Z,25.87
2019-05-26T09:15:11.222Z,25.88
2019-05-26T09:18:14.641Z,25.89
2019-05-26T09:21:18.066Z,25.90
2019-05-26T09:24:21.507Z,25.90
2019-05-26T09:27:24.912Z,25.90
2019-05-26T09:30:28.326Z,25.91
2019-05-26T09:33:31.802Z,25.93
2019-05-26T09:36:36.326Z,25.94
2019-05-26T09:39:39.828Z,25.93
2019-05-26T09:42:43.346Z,25.96
2019-05-26T09:45:46.874Z,25.99
2019-05-26T09:48:50.347Z,25.99
2019-05-26T09:51:53.842Z,26.00
2019-05-26T09:54:57.358Z,26.01
2019-05-26T09:58:01.140Z,26.02
2019-05-26T10:01:04.720Z,26.03
2019-05-26T10:04:08.150Z,26.04
2019-05-26T10:07:15.652Z,26.06
2019-05-26T10:10:17.166Z,26.07
2019-05-26T10:13:31.284Z,26.08
2019-05-26T10:16:25.942Z,26.10
2019-05-26T10:19:29.474Z,26.10
2019-05-26T10:22:32.966Z,26.11
2019-05-26T10:25:36.459Z,26.12
2019-05-26T10:28:40.203Z,26.13
2019-05-26T10:31:43.783Z,26.15
2019-05-26T10:34:47.319Z,26.16
2019-05-26T10:37:50.945Z,26.16
2019-05-26T10:40:54.568Z,26.18
2019-05-26T10:43:58.091Z,26.20
2019-05-26T10:47:01.568Z,26.20
2019-05-26T10:50:05.582Z,26.20
2019-05-26T10:53:09.311Z,26.23
2019-05-26T10:56:12.911Z,26.23
2019-05-26T10:59:16.384Z,26.24
2019-05-26T11:02:19.888Z,26.27
2019-05-26T11:05:23.402Z,26.27
2019-05-26T11:08:26.888Z,26.27
2019-05-26T11:11:30.395Z,26.30
2019-05-26T11:14:33.882Z,26.30
2019-05-26T11:17:37.391Z,26.31
2019-05-26T11:20:42.120Z,26.32
2019-05-26T11:23:45.621Z,26.33
2019-05-26T11:26:50.305Z,26.37
2019-05-26T11:29:53.839Z,26.38
2019-05-26T11:32:59.602Z,26.40
2019-05-26T11:36:02.701Z,26.42
2019-05-26T11:39:07.493Z,26.40
2019-05-26T11:42:13.752Z,26.43
2019-05-26T11:45:17.261Z,26.45
2019-05-26T11:48:21.844Z,26.48
2019-05-26T11:51:27.389Z,26.47
2019-05-26T11:54:34.465Z,26.49
2019-05-26T11:57:37.661Z,26.53
2019-05-26T12:00:41.473Z,26.51
2019-05-26T12:03:45.083Z,26.52
2019-05-26T12:06:49.607Z,26.55
2019-05-26T12:09:53.078Z,26.55
2019-05-26T12:12:58.643Z,26.55
2019-05-26T12:16:02.154Z,26.57
2019-05-26T12:19:05.672Z,26.58
2019-05-26T12:22:09.147Z,26.59
2019-05-26T12:25:12.650Z,26.59
2019-05-26T12:28:16.162Z,26.61
2019-05-26T12:31:19.645Z,26.60
2019-05-26T12:34:23.147Z,26.63
2019-05-26T12:37:26.673Z,26.65
2019-05-26T12:40:35.908Z,26.64
2019-05-26T12:43:41.438Z,26.66
2019-05-26T12:46:44.991Z,26.68
2019-05-26T12:49:48.431Z,26.69
2019-05-26T12:52:51.944Z,26.67
2019-05-26T12:55:55.436Z,26.68
2019-05-26T12:58:58.934Z,26.70
2019-05-26T13:02:02.447Z,26.72
2019-05-26T13:05:06.042Z,26.73
2019-05-26T13:08:09.677Z,26.74
2019-05-26T13:11:15.176Z,26.75
2019-05-26T13:14:18.685Z,26.76
2019-05-26T13:17:22.203Z,26.77
2019-05-26T13:20:26.752Z,26.75
2019-05-26T13:23:30.231Z,26.78
2019-05-26T13:26:33.765Z,26.79
2019-05-26T13:29:37.220Z,26.80
2019-05-26T13:32:40.723Z,26.81
2019-05-26T13:35:44.252Z,26.84
2019-05-26T13:38:47.757Z,26.85
2019-05-26T13:41:51.308Z,26.85
2019-05-26T13:44:54.734Z,26.85
2019-05-26T13:47:58.242Z,26.86
2019-05-26T13:51:01.771Z,26.87
2019-05-26T13:54:06.256Z,26.87
2019-05-26T13:57:09.775Z,26.88
2019-05-26T14:00:14.795Z,26.91
2019-05-26T14:03:18.236Z,26.92
2019-05-26T14:06:23.757Z,26.92
2019-05-26T14:09:27.643Z,26.93
2019-05-26T14:12:31.177Z,26.95
2019-05-26T14:15:38.658Z,26.94
2019-05-26T14:18:40.038Z,26.96
2019-05-26T14:21:43.507Z,27.00
2019-05-26T14:24:53.833Z,27.01
2019-05-26T14:27:52.391Z,27.02
2019-05-26T14:30:56.887Z,27.04
2019-05-26T14:34:00.378Z,27.05
2019-05-26T14:37:05.080Z,27.07
2019-05-26T14:40:09.285Z,27.07
2019-05-26T14:43:12.738Z,27.10
2019-05-26T14:46:16.236Z,27.09
2019-05-26T14:49:19.769Z,27.07
2019-05-26T14:52:23.246Z,27.08
2019-05-26T14:55:26.729Z,27.08
2019-05-26T14:58:30.231Z,27.08
2019-05-26T15:01:33.727Z,27.10
2019-05-26T15:04:37.236Z,27.08
2019-05-26T15:07:41.745Z,27.09
2019-05-26T15:10:46.324Z,27.10
2019-05-26T15:13:49.796Z,27.13
2019-05-26T15:16:53.278Z,27.15
2019-05-26T15:19:56.791Z,27.14
2019-05-26T15:23:00.331Z,27.17
2019-05-26T15:26:05.478Z,27.16
2019-05-26T15:29:09.227Z,27.17
2019-05-26T15:32:16.117Z,27.18
2019-05-26T15:35:19.641Z,27.19
2019-05-26T15:38:23.122Z,27.22
2019-05-26T15:41:26.622Z,27.20
2019-05-26T15:44:30.183Z,27.21
2019-05-26T15:47:33.639Z,27.20
2019-05-26T15:50:37.125Z,27.20
2019-05-26T15:53:41.887Z,27.20
2019-05-26T15:56:45.362Z,27.19
2019-05-26T15:59:48.860Z,27.19
2019-05-26T16:02:52.361Z,27.16
2019-05-26T16:05:55.859Z,27.17
2019-05-26T16:08:59.379Z,27.16
2019-05-26T16:12:09.163Z,27.15
2019-05-26T16:15:14.094Z,27.16
2019-05-26T16:18:18.599Z,27.15
2019-05-26T16:21:28.188Z,27.14
2019-05-26T16:24:30.965Z,27.14
2019-05-26T16:27:38.646Z,27.14
2019-05-26T16:30:54.324Z,27.13
2019-05-26T16:33:59.048Z,27.13
2019-05-26T16:37:02.571Z,27.12
2019-05-26T16:40:06.940Z,27.13
2019-05-26T16:43:10.493Z,27.13
2019-05-26T16:46:13.937Z,27.14
2019-05-26T16:49:18.455Z,27.12
2019-05-26T16:52:23.065Z,27.13
2019-05-26T16:55:26.829Z,27.12
2019-05-26T16:58:30.405Z,27.11
2019-05-26T17:01:33.909Z,27.09
2019-05-26T17:04:43.582Z,27.11
2019-05-26T17:07:50.361Z,27.11
2019-05-26T17:10:53.427Z,27.09
2019-05-26T17:13:57.392Z,27.08
2019-05-26T17:17:14.148Z,27.07
2019-05-26T17:20:07.049Z,27.08
2019-05-26T17:23:10.490Z,27.07
2019-05-26T17:26:15.034Z,27.06
2019-05-26T17:29:18.520Z,27.05
2019-05-26T17:32:22.022Z,27.07
2019-05-26T17:35:25.443Z,27.06
2019-05-26T17:38:29.025Z,27.04
2019-05-26T17:41:32.662Z,27.05
2019-05-26T17:44:36.247Z,27.04
2019-05-26T17:47:39.761Z,27.03
2019-05-26T17:50:43.242Z,27.03
2019-05-26T17:53:46.744Z,27.02
2019-05-26T17:56:50.230Z,27.01
2019-05-26T17:59:55.794Z,27.00
2019-05-26T18:02:59.343Z,26.99
2019-05-26T18:06:04.379Z,27.00
2019-05-26T18:09:08.148Z,26.99
2019-05-26T18:12:11.773Z,26.99
2019-05-26T18:15:15.366Z,26.99
2019-05-26T18:18:20.908Z,26.99
2019-05-26T18:21:24.444Z,26.99
2019-05-26T18:24:27.896Z,26.99
2019-05-26T18:27:31.396Z,26.99
2019-05-26T18:30:37.029Z,26.98
2019-05-26T18:33:40.467Z,26.98
2019-05-26T18:36:43.960Z,26.98
2019-05-26T18:39:47.496Z,27.00
2019-05-26T18:42:50.955Z,26.99
2019-05-26T18:45:55.473Z,26.98
2019-05-26T18:48:58.964Z,26.97
2019-05-26T18:52:02.509Z,26.98
2019-05-26T18:55:07.004Z,26.99
2019-05-26T18:58:11.529Z,26.98
2019-05-26T19:01:15.232Z,26.97
2019-05-26T19:04:18.744Z,26.97
2019-05-26T19:07:22.271Z,26.96
2019-05-26T19:10:25.777Z,26.97
2019-05-26T19:13:29.237Z,26.97
2019-05-26T19:16:32.895Z,26.96
2019-05-26T19:19:36.527Z,26.96
2019-05-26T19:22:40.967Z,26.96
2019-05-26T19:25:46.696Z,26.97
2019-05-26T19:28:50.243Z,26.97
2019-05-26T19:31:53.729Z,26.95
2019-05-26T19:34:57.233Z,26.97
2019-05-26T19:38:00.742Z,26.96
2019-05-26T19:41:04.235Z,26.92
2019-05-26T19:44:07.735Z,26.93
2019-05-26T19:47:11.231Z,26.90
2019-05-26T19:50:14.737Z,26.89
2019-05-26T19:53:18.255Z,26.88
2019-05-26T19:56:22.791Z,26.86
2019-05-26T19:59:26.259Z,26.85
2019-05-26T20:02:29.791Z,26.86
2019-05-26T20:05:33.277Z,26.84
2019-05-26T20:08:36.866Z,26.82
2019-05-26T20:11:40.473Z,26.82
2019-05-26T20:14:44.986Z,26.81
2019-05-26T20:17:48.510Z,26.82
2019-05-26T20:20:51.907Z,26.82
2019-05-26T20:23:57.347Z,26.81
2019-05-26T20:27:00.856Z,26.82
2019-05-26T20:30:04.533Z,26.76
2019-05-26T20:33:08.083Z,26.77
2019-05-26T20:36:11.584Z,26.76
2019-05-26T20:39:15.006Z,26.77
2019-05-26T20:42:18.536Z,26.79
2019-05-26T20:45:22.066Z,26.75
2019-05-26T20:48:25.568Z,26.75
2019-05-26T20:51:29.050Z,26.74
2019-05-26T20:54:32.568Z,26.72
2019-05-26T20:57:37.120Z,26.71
2019-05-26T21:00:40.583Z,26.71
2019-05-26T21:03:44.015Z,26.71
2019-05-26T21:06:50.613Z,26.69
2019-05-26T21:09:54.054Z,26.67
2019-05-26T21:12:57.663Z,26.69
2019-05-26T21:16:01.160Z,26.68
2019-05-26T21:19:04.681Z,26.66
2019-05-26T21:22:08.152Z,26.67
2019-05-26T21:25:11.682Z,26.67
2019-05-26T21:28:15.170Z,26.64
2019-05-26T21:31:18.664Z,26.65
2019-05-26T21:34:22.162Z,26.64
2019-05-26T21:37:25.584Z,26.63
2019-05-26T21:40:29.479Z,26.62
2019-05-26T21:43:33.085Z,26.61
2019-05-26T21:46:36.584Z,26.58
2019-05-26T21:49:40.178Z,26.59
2019-05-26T21:52:43.881Z,26.58
2019-05-26T21:55:47.482Z,26.60
2019-05-26T21:58:50.997Z,26.59
2019-05-26T22:01:54.494Z,26.59
2019-05-26T22:04:58.036Z,26.58
2019-05-26T22:08:01.500Z,26.55
2019-05-26T22:11:05.009Z,26.57
2019-05-26T22:14:08.500Z,26.53
2019-05-26T22:17:12.001Z,26.54
2019-05-26T22:20:15.412Z,26.55
2019-05-26T22:23:19.825Z,26.53
2019-05-26T22:26:23.349Z,26.55
2019-05-26T22:29:26.832Z,26.52
2019-05-26T22:32:30.330Z,26.51
2019-05-26T22:35:33.863Z,26.53
2019-05-26T22:38:37.256Z,26.51
2019-05-26T22:41:41.983Z,26.51
2019-05-26T22:44:45.455Z,26.49
2019-05-26T22:47:49.075Z,26.49
2019-05-26T22:50:52.486Z,26.49
2019-05-26T22:53:55.970Z,26.51
2019-05-26T22:56:59.553Z,26.48
2019-05-26T23:00:03.065Z,26.48
2019-05-26T23:03:06.709Z,26.48
2019-05-26T23:06:10.195Z,26.47
2019-05-26T23:09:13.764Z,26.46
2019-05-26T23:12:17.270Z,26.48
2019-05-26T23:15:22.668Z,26.45
2019-05-26T23:18:26.125Z,26.48
2019-05-26T23:21:30.663Z,26.45
2019-05-26T23:24:34.159Z,26.44
2019-05-26T23:27:37.654Z,26.46
2019-05-26T23:30:41.164Z,26.44
2019-05-26T23:33:44.770Z,26.44
2019-05-26T23:36:48.359Z,26.44
2019-05-26T23:39:51.847Z,26.41
2019-05-26T23:42:56.387Z,26.43
2019-05-26T23:45:59.787Z,26.41
2019-05-26T23:49:03.186Z,26.39
2019-05-26T23:52:07.611Z,26.39
2019-05-26T23:55:11.225Z,26.39
2019-05-26T23:58:14.710Z,26.41
